CheckWX is a tool to help pilots better visualize weather data.  It is not intended as a substitute for an official pre-flight weather briefing.

12:23:41 UTC

KSUE METAR
Door County Cherryland Airport
Sturgeon Bay, Wisconsin, USA
Current

28 mins ago

KSUE 221156Z AUTO 00000KT 7SM CLR M13/M14 A3042 RMK AO2 SLP326 7//// T11281139 11100 21128 53019 FZRANO
Observed
Feb-22 @ 11:56 UTC
Visibility
7 SM
Flight Rules
VFR
Cloud Levels
  • Clear skies
Temperature
-13°C / 9°F
Dewpoint
-14°C / 7°F
Humidity
92%
Altimeter
30.42" Hg
Pressure
1032.6 hPa
Previous

1 hour ago

KSUE 221056Z AUTO 26004KT 6SM BR CLR M13/M14 A3040 RMK AO2 SLP320 T11281144 FZRANO
Observed
Feb-22 @ 10:56 UTC
Wind
  • 260° at 4 KTS
Visibility
6 SM
Flight Rules
VFR
Conditions
Mist
Cloud Levels
  • Clear skies
Temperature
-13°C / 9°F
Dewpoint
-14°C / 7°F
Humidity
92%
Altimeter
30.4" Hg
Pressure
1032 hPa
Previous

2 hours ago

KSUE 220956Z AUTO 23003KT 5SM BR CLR M12/M14 A3036 RMK AO2 SLP307 T11221139 FZRANO
Observed
Feb-22 @ 09:56 UTC
Wind
  • 230° at 3 KTS
Visibility
5 SM
Flight Rules
MVFR
Conditions
Mist
Cloud Levels
  • Clear skies
Temperature
-12°C / 10°F
Dewpoint
-14°C / 7°F
Humidity
85%
Altimeter
30.36" Hg
Pressure
1030.7 hPa